sensor_id;sensor_type;location;lat;lon;timestamp;P1;durP1;ratioP1;P2;durP2;ratioP2
40847;SDS011;26570;50.962;5.340;2022-12-18T01:03:14;85.63;;;30.50;;
40847;SDS011;26570;50.962;5.340;2022-12-18T01:06:24;94.55;;;30.15;;
40847;SDS011;26570;50.962;5.340;2022-12-18T01:09:13;91.97;;;31.58;;
40847;SDS011;26570;50.962;5.340;2022-12-18T01:18:00;88.15;;;28.80;;
40847;SDS011;26570;50.962;5.340;2022-12-18T01:21:21;93.88;;;30.63;;
40847;SDS011;26570;50.962;5.340;2022-12-18T01:24:12;91.03;;;32.13;;
40847;SDS011;26570;50.962;5.340;2022-12-18T01:26:59;105.20;;;31.73;;
40847;SDS011;26570;50.962;5.340;2022-12-18T01:30:09;94.03;;;29.63;;
40847;SDS011;26570;50.962;5.340;2022-12-18T01:32:56;92.28;;;30.98;;
40847;SDS011;26570;50.962;5.340;2022-12-18T01:35:44;81.95;;;30.13;;
40847;SDS011;26570;50.962;5.340;2022-12-18T01:38:30;92.90;;;31.02;;
40847;SDS011;26570;50.962;5.340;2022-12-18T01:41:24;95.75;;;29.98;;
40847;SDS011;26570;50.962;5.340;2022-12-18T01:47:48;85.38;;;27.85;;
40847;SDS011;26570;50.962;5.340;2022-12-18T01:50:48;80.72;;;28.48;;
40847;SDS011;26570;50.962;5.340;2022-12-18T01:53:37;85.05;;;27.45;;
40847;SDS011;26570;50.962;5.340;2022-12-18T01:56:27;83.97;;;27.95;;
40847;SDS011;26570;50.962;5.340;2022-12-18T01:59:20;77.95;;;27.17;;
40847;SDS011;26570;50.962;5.340;2022-12-18T02:02:12;89.65;;;30.33;;
40847;SDS011;26570;50.962;5.340;2022-12-18T02:05:02;78.53;;;27.73;;
40847;SDS011;26570;50.962;5.340;2022-12-18T02:13:41;81.95;;;28.45;;
40847;SDS011;26570;50.962;5.340;2022-12-18T02:28:53;80.93;;;27.35;;
40847;SDS011;26570;50.962;5.340;2022-12-18T02:31:51;76.68;;;25.27;;
40847;SDS011;26570;50.962;5.340;2022-12-18T02:34:46;76.10;;;28.10;;
40847;SDS011;26570;50.962;5.340;2022-12-18T02:37:34;74.78;;;25.52;;
40847;SDS011;26570;50.962;5.340;2022-12-18T02:40:51;74.72;;;24.58;;
40847;SDS011;26570;50.962;5.340;2022-12-18T02:43:46;73.45;;;25.75;;
40847;SDS011;26570;50.962;5.340;2022-12-18T02:49:36;75.88;;;27.70;;
40847;SDS011;26570;50.962;5.340;2022-12-18T02:56:35;78.28;;;26.67;;
40847;SDS011;26570;50.962;5.340;2022-12-18T02:59:33;85.13;;;27.63;;
40847;SDS011;26570;50.962;5.340;2022-12-18T03:05:51;73.32;;;25.15;;
40847;SDS011;26570;50.962;5.340;2022-12-18T03:09:03;77.22;;;25.45;;
40847;SDS011;26570;50.962;5.340;2022-12-18T03:12:15;73.10;;;25.52;;
40847;SDS011;26570;50.962;5.340;2022-12-18T03:15:22;73.47;;;23.77;;
40847;SDS011;26570;50.962;5.340;2022-12-18T03:21:51;74.95;;;27.77;;
40847;SDS011;26570;50.962;5.340;2022-12-18T03:24:43;74.25;;;24.73;;
40847;SDS011;26570;50.962;5.340;2022-12-18T03:27:35;80.50;;;25.20;;
40847;SDS011;26570;50.962;5.340;2022-12-18T03:30:37;68.80;;;24.13;;
40847;SDS011;26570;50.962;5.340;2022-12-18T03:33:28;73.15;;;25.70;;
40847;SDS011;26570;50.962;5.340;2022-12-18T03:36:22;61.60;;;24.20;;
40847;SDS011;26570;50.962;5.340;2022-12-18T03:39:13;71.07;;;24.88;;
40847;SDS011;26570;50.962;5.340;2022-12-18T03:48:35;67.30;;;23.45;;
40847;SDS011;26570;50.962;5.340;2022-12-18T03:51:35;66.55;;;23.88;;
40847;SDS011;26570;50.962;5.340;2022-12-18T03:54:26;68.05;;;23.60;;
40847;SDS011;26570;50.962;5.340;2022-12-18T03:57:22;70.60;;;24.17;;
40847;SDS011;26570;50.962;5.340;2022-12-18T04:00:12;57.70;;;21.58;;
40847;SDS011;26570;50.962;5.340;2022-12-18T04:03:04;75.65;;;22.80;;
40847;SDS011;26570;50.962;5.340;2022-12-18T04:05:55;69.53;;;22.33;;
40847;SDS011;26570;50.962;5.340;2022-12-18T04:08:47;68.80;;;22.60;;
40847;SDS011;26570;50.962;5.340;2022-12-18T04:11:35;66.50;;;24.17;;
40847;SDS011;26570;50.962;5.340;2022-12-18T04:14:22;66.90;;;23.63;;
40847;SDS011;26570;50.962;5.340;2022-12-18T04:17:14;66.45;;;24.33;;
40847;SDS011;26570;50.962;5.340;2022-12-18T04:20:29;63.53;;;23.33;;
40847;SDS011;26570;50.962;5.340;2022-12-18T04:23:19;67.63;;;22.33;;
40847;SDS011;26570;50.962;5.340;2022-12-18T04:26:09;73.55;;;22.35;;
40847;SDS011;26570;50.962;5.340;2022-12-18T04:32:00;63.47;;;20.65;;
40847;SDS011;26570;50.962;5.340;2022-12-18T04:34:51;57.78;;;21.77;;
40847;SDS011;26570;50.962;5.340;2022-12-18T04:37:40;63.95;;;22.13;;
40847;SDS011;26570;50.962;5.340;2022-12-18T04:40:31;70.95;;;24.27;;
40847;SDS011;26570;50.962;5.340;2022-12-18T04:43:22;72.18;;;22.30;;
40847;SDS011;26570;50.962;5.340;2022-12-18T04:46:33;54.05;;;20.80;;
40847;SDS011;26570;50.962;5.340;2022-12-18T04:49:23;67.00;;;22.85;;
40847;SDS011;26570;50.962;5.340;2022-12-18T04:52:24;63.60;;;23.23;;
40847;SDS011;26570;50.962;5.340;2022-12-18T04:55:15;63.72;;;22.55;;
40847;SDS011;26570;50.962;5.340;2022-12-18T04:58:02;69.70;;;22.17;;
40847;SDS011;26570;50.962;5.340;2022-12-18T05:00:55;73.25;;;21.77;;
40847;SDS011;26570;50.962;5.340;2022-12-18T05:04:07;56.40;;;20.00;;
40847;SDS011;26570;50.962;5.340;2022-12-18T05:06:58;72.45;;;21.55;;
40847;SDS011;26570;50.962;5.340;2022-12-18T05:09:48;55.25;;;20.80;;
40847;SDS011;26570;50.962;5.340;2022-12-18T05:12:35;54.90;;;19.10;;
40847;SDS011;26570;50.962;5.340;2022-12-18T05:15:42;53.67;;;18.25;;
40847;SDS011;26570;50.962;5.340;2022-12-18T05:18:37;57.33;;;22.27;;
40847;SDS011;26570;50.962;5.340;2022-12-18T05:21:27;54.60;;;19.75;;
40847;SDS011;26570;50.962;5.340;2022-12-18T05:24:36;63.47;;;20.63;;
40847;SDS011;26570;50.962;5.340;2022-12-18T05:27:26;47.13;;;19.63;;
40847;SDS011;26570;50.962;5.340;2022-12-18T05:30:14;56.20;;;20.75;;
40847;SDS011;26570;50.962;5.340;2022-12-18T05:33:10;62.35;;;19.63;;
40847;SDS011;26570;50.962;5.340;2022-12-18T05:36:03;50.38;;;18.88;;
40847;SDS011;26570;50.962;5.340;2022-12-18T05:39:31;55.38;;;17.83;;
40847;SDS011;26570;50.962;5.340;2022-12-18T05:42:29;52.17;;;18.10;;
40847;SDS011;26570;50.962;5.340;2022-12-18T05:45:20;48.90;;;17.30;;
40847;SDS011;26570;50.962;5.340;2022-12-18T05:48:10;57.03;;;17.85;;
40847;SDS011;26570;50.962;5.340;2022-12-18T05:51:08;52.47;;;17.90;;
40847;SDS011;26570;50.962;5.340;2022-12-18T05:53:59;55.03;;;17.77;;
40847;SDS011;26570;50.962;5.340;2022-12-18T05:56:50;52.70;;;17.88;;
40847;SDS011;26570;50.962;5.340;2022-12-18T05:59:40;50.40;;;19.00;;
40847;SDS011;26570;50.962;5.340;2022-12-18T06:05:51;55.05;;;15.18;;
40847;SDS011;26570;50.962;5.340;2022-12-18T06:08:39;52.05;;;16.40;;
40847;SDS011;26570;50.962;5.340;2022-12-18T06:11:28;48.83;;;16.17;;
40847;SDS011;26570;50.962;5.340;2022-12-18T06:14:18;46.90;;;17.67;;
40847;SDS011;26570;50.962;5.340;2022-12-18T06:17:05;45.92;;;16.10;;
40847;SDS011;26570;50.962;5.340;2022-12-18T06:19:55;49.00;;;17.33;;
40847;SDS011;26570;50.962;5.340;2022-12-18T06:22:45;52.55;;;16.55;;
40847;SDS011;26570;50.962;5.340;2022-12-18T06:25:38;51.85;;;18.10;;
40847;SDS011;26570;50.962;5.340;2022-12-18T06:28:25;47.47;;;17.38;;
40847;SDS011;26570;50.962;5.340;2022-12-18T06:31:13;53.50;;;16.73;;
40847;SDS011;26570;50.962;5.340;2022-12-18T06:34:05;45.45;;;17.42;;
40847;SDS011;26570;50.962;5.340;2022-12-18T06:36:58;51.90;;;17.38;;
40847;SDS011;26570;50.962;5.340;2022-12-18T06:40:14;49.53;;;16.60;;
40847;SDS011;26570;50.962;5.340;2022-12-18T06:43:25;43.17;;;15.82;;
40847;SDS011;26570;50.962;5.340;2022-12-18T06:46:22;43.45;;;17.90;;
40847;SDS011;26570;50.962;5.340;2022-12-18T06:49:09;47.53;;;17.17;;
40847;SDS011;26570;50.962;5.340;2022-12-18T06:51:56;49.17;;;17.00;;
40847;SDS011;26570;50.962;5.340;2022-12-18T06:54:46;41.50;;;15.82;;
40847;SDS011;26570;50.962;5.340;2022-12-18T06:57:34;43.67;;;16.33;;
40847;SDS011;26570;50.962;5.340;2022-12-18T07:00:23;47.13;;;17.98;;
40847;SDS011;26570;50.962;5.340;2022-12-18T07:03:13;46.67;;;15.70;;
40847;SDS011;26570;50.962;5.340;2022-12-18T07:06:15;40.03;;;13.73;;
40847;SDS011;26570;50.962;5.340;2022-12-18T07:09:04;42.25;;;15.52;;
40847;SDS011;26570;50.962;5.340;2022-12-18T07:17:28;38.75;;;14.88;;
40847;SDS011;26570;50.962;5.340;2022-12-18T07:20:16;46.28;;;15.63;;
40847;SDS011;26570;50.962;5.340;2022-12-18T07:23:05;40.88;;;16.75;;
40847;SDS011;26570;50.962;5.340;2022-12-18T07:44:24;43.25;;;15.25;;
40847;SDS011;26570;50.962;5.340;2022-12-18T07:47:15;38.42;;;13.18;;
40847;SDS011;26570;50.962;5.340;2022-12-18T07:52:52;38.88;;;13.45;;
40847;SDS011;26570;50.962;5.340;2022-12-18T07:55:43;35.30;;;13.32;;
40847;SDS011;26570;50.962;5.340;2022-12-18T08:10:10;33.40;;;12.95;;
40847;SDS011;26570;50.962;5.340;2022-12-18T08:13:03;27.13;;;11.88;;
40847;SDS011;26570;50.962;5.340;2022-12-18T08:16:00;28.42;;;12.32;;
40847;SDS011;26570;50.962;5.340;2022-12-18T08:18:58;27.77;;;11.82;;
40847;SDS011;26570;50.962;5.340;2022-12-18T08:21:46;26.38;;;10.80;;
40847;SDS011;26570;50.962;5.340;2022-12-18T08:24:35;34.92;;;12.77;;
40847;SDS011;26570;50.962;5.340;2022-12-18T08:27:53;37.05;;;12.40;;
40847;SDS011;26570;50.962;5.340;2022-12-18T08:30:41;41.25;;;12.70;;
40847;SDS011;26570;50.962;5.340;2022-12-18T08:33:37;28.73;;;9.73;;
40847;SDS011;26570;50.962;5.340;2022-12-18T08:36:33;32.17;;;11.57;;
40847;SDS011;26570;50.962;5.340;2022-12-18T08:39:21;29.38;;;12.25;;
40847;SDS011;26570;50.962;5.340;2022-12-18T08:42:16;31.60;;;12.52;;
40847;SDS011;26570;50.962;5.340;2022-12-18T08:48:11;31.42;;;11.07;;
40847;SDS011;26570;50.962;5.340;2022-12-18T08:50:59;35.33;;;12.20;;
40847;SDS011;26570;50.962;5.340;2022-12-18T08:53:46;27.60;;;12.02;;
40847;SDS011;26570;50.962;5.340;2022-12-18T08:56:36;31.17;;;12.50;;
40847;SDS011;26570;50.962;5.340;2022-12-18T08:59:22;29.73;;;12.88;;
40847;SDS011;26570;50.962;5.340;2022-12-18T09:02:13;28.20;;;12.98;;
40847;SDS011;26570;50.962;5.340;2022-12-18T09:05:00;29.60;;;13.48;;
40847;SDS011;26570;50.962;5.340;2022-12-18T09:07:48;37.65;;;14.93;;
40847;SDS011;26570;50.962;5.340;2022-12-18T09:10:40;35.65;;;13.93;;
40847;SDS011;26570;50.962;5.340;2022-12-18T09:13:28;36.17;;;16.30;;
40847;SDS011;26570;50.962;5.340;2022-12-18T09:16:18;34.20;;;13.77;;
40847;SDS011;26570;50.962;5.340;2022-12-18T09:19:08;36.03;;;16.15;;
40847;SDS011;26570;50.962;5.340;2022-12-18T09:21:56;30.55;;;14.25;;
40847;SDS011;26570;50.962;5.340;2022-12-18T09:24:44;33.25;;;14.55;;
40847;SDS011;26570;50.962;5.340;2022-12-18T09:27:31;33.03;;;14.32;;
40847;SDS011;26570;50.962;5.340;2022-12-18T09:30:21;31.85;;;14.23;;
40847;SDS011;26570;50.962;5.340;2022-12-18T09:33:16;32.10;;;14.98;;
40847;SDS011;26570;50.962;5.340;2022-12-18T09:36:06;36.05;;;15.85;;
40847;SDS011;26570;50.962;5.340;2022-12-18T09:38:57;39.47;;;18.05;;
40847;SDS011;26570;50.962;5.340;2022-12-18T09:41:45;40.92;;;18.95;;
40847;SDS011;26570;50.962;5.340;2022-12-18T09:44:52;31.63;;;14.88;;
40847;SDS011;26570;50.962;5.340;2022-12-18T09:47:57;40.45;;;15.57;;
40847;SDS011;26570;50.962;5.340;2022-12-18T09:50:48;29.48;;;14.65;;
40847;SDS011;26570;50.962;5.340;2022-12-18T10:11:38;33.10;;;14.93;;
40847;SDS011;26570;50.962;5.340;2022-12-18T10:21:51;28.67;;;14.47;;
40847;SDS011;26570;50.962;5.340;2022-12-18T10:24:38;31.63;;;14.97;;
40847;SDS011;26570;50.962;5.340;2022-12-18T10:27:34;31.90;;;14.17;;
40847;SDS011;26570;50.962;5.340;2022-12-18T10:30:23;29.70;;;15.70;;
40847;SDS011;26570;50.962;5.340;2022-12-18T10:33:15;28.90;;;14.77;;
40847;SDS011;26570;50.962;5.340;2022-12-18T10:36:06;26.67;;;14.00;;
40847;SDS011;26570;50.962;5.340;2022-12-18T10:39:19;31.67;;;14.60;;
40847;SDS011;26570;50.962;5.340;2022-12-18T10:42:17;37.97;;;17.17;;
40847;SDS011;26570;50.962;5.340;2022-12-18T10:45:27;38.77;;;16.90;;
40847;SDS011;26570;50.962;5.340;2022-12-18T10:48:18;34.93;;;15.90;;
40847;SDS011;26570;50.962;5.340;2022-12-18T10:51:10;30.07;;;14.27;;
40847;SDS011;26570;50.962;5.340;2022-12-18T10:54:52;28.50;;;14.30;;
40847;SDS011;26570;50.962;5.340;2022-12-18T10:57:48;30.80;;;15.57;;
40847;SDS011;26570;50.962;5.340;2022-12-18T11:00:35;37.67;;;15.93;;
40847;SDS011;26570;50.962;5.340;2022-12-18T11:06:35;34.90;;;15.73;;
40847;SDS011;26570;50.962;5.340;2022-12-18T11:09:41;36.13;;;16.53;;
40847;SDS011;26570;50.962;5.340;2022-12-18T11:18:03;30.10;;;15.43;;
40847;SDS011;26570;50.962;5.340;2022-12-18T11:24:17;32.30;;;15.17;;
40847;SDS011;26570;50.962;5.340;2022-12-18T11:27:16;35.00;;;15.40;;
40847;SDS011;26570;50.962;5.340;2022-12-18T11:35:57;30.60;;;15.07;;
40847;SDS011;26570;50.962;5.340;2022-12-18T11:38:50;31.37;;;16.33;;
40847;SDS011;26570;50.962;5.340;2022-12-18T11:42:01;30.40;;;14.40;;
40847;SDS011;26570;50.962;5.340;2022-12-18T11:45:00;33.67;;;16.17;;
40847;SDS011;26570;50.962;5.340;2022-12-18T11:48:17;30.40;;;15.30;;
40847;SDS011;26570;50.962;5.340;2022-12-18T11:51:34;28.63;;;15.27;;
40847;SDS011;26570;50.962;5.340;2022-12-18T11:54:38;28.10;;;15.13;;
40847;SDS011;26570;50.962;5.340;2022-12-18T12:00:19;34.67;;;15.57;;
40847;SDS011;26570;50.962;5.340;2022-12-18T12:03:51;26.70;;;14.13;;
40847;SDS011;26570;50.962;5.340;2022-12-18T12:07:35;31.70;;;15.07;;
40847;SDS011;26570;50.962;5.340;2022-12-18T12:10:57;29.83;;;14.20;;
40847;SDS011;26570;50.962;5.340;2022-12-18T12:17:11;26.67;;;14.70;;
40847;SDS011;26570;50.962;5.340;2022-12-18T12:20:22;31.97;;;15.23;;
40847;SDS011;26570;50.962;5.340;2022-12-18T12:36:10;31.43;;;16.23;;
40847;SDS011;26570;50.962;5.340;2022-12-18T12:39:08;30.80;;;16.47;;
40847;SDS011;26570;50.962;5.340;2022-12-18T12:42:03;32.60;;;16.83;;
40847;SDS011;26570;50.962;5.340;2022-12-18T12:44:48;35.43;;;17.20;;
40847;SDS011;26570;50.962;5.340;2022-12-18T12:48:01;33.67;;;17.47;;
40847;SDS011;26570;50.962;5.340;2022-12-18T12:51:19;30.27;;;17.10;;
40847;SDS011;26570;50.962;5.340;2022-12-18T12:54:14;35.80;;;17.00;;
40847;SDS011;26570;50.962;5.340;2022-12-18T13:00:18;31.07;;;15.57;;
40847;SDS011;26570;50.962;5.340;2022-12-18T13:03:52;27.48;;;15.75;;
40847;SDS011;26570;50.962;5.340;2022-12-18T13:13:16;34.73;;;16.40;;
40847;SDS011;26570;50.962;5.340;2022-12-18T13:16:29;30.30;;;15.87;;
40847;SDS011;26570;50.962;5.340;2022-12-18T13:19:52;30.67;;;16.23;;
40847;SDS011;26570;50.962;5.340;2022-12-18T13:22:52;33.97;;;16.77;;
40847;SDS011;26570;50.962;5.340;2022-12-18T13:28:57;32.67;;;16.43;;
40847;SDS011;26570;50.962;5.340;2022-12-18T13:38:37;41.80;;;19.27;;
40847;SDS011;26570;50.962;5.340;2022-12-18T13:41:29;31.27;;;16.80;;
40847;SDS011;26570;50.962;5.340;2022-12-18T13:44:40;33.97;;;17.97;;
40847;SDS011;26570;50.962;5.340;2022-12-18T13:47:36;36.83;;;19.40;;
40847;SDS011;26570;50.962;5.340;2022-12-18T13:50:33;39.33;;;18.85;;
40847;SDS011;26570;50.962;5.340;2022-12-18T13:53:28;35.33;;;19.23;;
40847;SDS011;26570;50.962;5.340;2022-12-18T13:56:30;40.00;;;19.07;;
40847;SDS011;26570;50.962;5.340;2022-12-18T13:59:37;39.23;;;20.57;;
40847;SDS011;26570;50.962;5.340;2022-12-18T14:02:51;35.60;;;19.23;;
40847;SDS011;26570;50.962;5.340;2022-12-18T14:05:41;35.43;;;19.23;;
40847;SDS011;26570;50.962;5.340;2022-12-18T14:08:45;36.40;;;19.25;;
40847;SDS011;26570;50.962;5.340;2022-12-18T14:11:38;38.72;;;19.83;;
40847;SDS011;26570;50.962;5.340;2022-12-18T14:14:35;35.83;;;19.60;;
40847;SDS011;26570;50.962;5.340;2022-12-18T14:17:32;38.03;;;18.90;;
40847;SDS011;26570;50.962;5.340;2022-12-18T14:20:27;45.73;;;22.23;;
40847;SDS011;26570;50.962;5.340;2022-12-18T14:23:39;38.90;;;20.10;;
40847;SDS011;26570;50.962;5.340;2022-12-18T14:26:38;36.67;;;19.70;;
40847;SDS011;26570;50.962;5.340;2022-12-18T14:29:51;41.13;;;21.00;;
40847;SDS011;26570;50.962;5.340;2022-12-18T14:33:13;32.63;;;18.83;;
40847;SDS011;26570;50.962;5.340;2022-12-18T14:36:05;38.63;;;19.77;;
40847;SDS011;26570;50.962;5.340;2022-12-18T14:39:11;41.27;;;20.73;;
40847;SDS011;26570;50.962;5.340;2022-12-18T14:42:10;35.93;;;19.57;;
40847;SDS011;26570;50.962;5.340;2022-12-18T14:48:36;42.23;;;21.10;;
40847;SDS011;26570;50.962;5.340;2022-12-18T14:51:41;40.03;;;20.93;;
40847;SDS011;26570;50.962;5.340;2022-12-18T14:54:58;37.20;;;20.17;;
40847;SDS011;26570;50.962;5.340;2022-12-18T14:57:59;39.17;;;21.17;;
40847;SDS011;26570;50.962;5.340;2022-12-18T15:00:48;42.27;;;21.87;;
40847;SDS011;26570;50.962;5.340;2022-12-18T15:03:42;41.60;;;23.10;;
40847;SDS011;26570;50.962;5.340;2022-12-18T15:06:35;42.87;;;23.13;;
40847;SDS011;26570;50.962;5.340;2022-12-18T15:09:30;40.60;;;21.97;;
40847;SDS011;26570;50.962;5.340;2022-12-18T15:12:41;46.17;;;23.80;;
40847;SDS011;26570;50.962;5.340;2022-12-18T15:18:42;44.53;;;23.17;;
40847;SDS011;26570;50.962;5.340;2022-12-18T15:24:24;48.20;;;23.27;;
40847;SDS011;26570;50.962;5.340;2022-12-18T15:30:16;43.10;;;22.97;;
40847;SDS011;26570;50.962;5.340;2022-12-18T15:33:17;45.72;;;23.10;;
40847;SDS011;26570;50.962;5.340;2022-12-18T15:36:20;44.17;;;21.17;;
40847;SDS011;26570;50.962;5.340;2022-12-18T15:39:26;44.83;;;22.57;;
40847;SDS011;26570;50.962;5.340;2022-12-18T15:42:14;43.57;;;22.10;;
40847;SDS011;26570;50.962;5.340;2022-12-18T15:45:23;46.67;;;23.20;;
40847;SDS011;26570;50.962;5.340;2022-12-18T15:48:24;46.45;;;22.83;;
40847;SDS011;26570;50.962;5.340;2022-12-18T15:54:45;45.63;;;24.37;;
40847;SDS011;26570;50.962;5.340;2022-12-18T15:57:53;51.60;;;26.33;;
40847;SDS011;26570;50.962;5.340;2022-12-18T16:00:43;52.00;;;26.23;;
40847;SDS011;26570;50.962;5.340;2022-12-18T16:03:40;57.53;;;29.57;;
40847;SDS011;26570;50.962;5.340;2022-12-18T16:06:32;60.47;;;29.57;;
40847;SDS011;26570;50.962;5.340;2022-12-18T16:09:23;60.63;;;30.23;;
40847;SDS011;26570;50.962;5.340;2022-12-18T16:12:33;55.43;;;29.40;;
40847;SDS011;26570;50.962;5.340;2022-12-18T16:15:39;55.70;;;27.67;;
40847;SDS011;26570;50.962;5.340;2022-12-18T16:19:05;48.47;;;24.83;;
40847;SDS011;26570;50.962;5.340;2022-12-18T16:22:28;50.53;;;24.97;;
40847;SDS011;26570;50.962;5.340;2022-12-18T16:25:19;51.83;;;26.47;;
40847;SDS011;26570;50.962;5.340;2022-12-18T16:28:13;50.70;;;25.37;;
40847;SDS011;26570;50.962;5.340;2022-12-18T16:31:00;52.97;;;26.23;;
40847;SDS011;26570;50.962;5.340;2022-12-18T16:34:09;51.30;;;26.67;;
40847;SDS011;26570;50.962;5.340;2022-12-18T16:37:16;51.13;;;24.83;;
40847;SDS011;26570;50.962;5.340;2022-12-18T16:40:03;52.00;;;26.63;;
40847;SDS011;26570;50.962;5.340;2022-12-18T16:42:50;50.97;;;26.67;;
40847;SDS011;26570;50.962;5.340;2022-12-18T16:45:45;53.43;;;26.63;;
40847;SDS011;26570;50.962;5.340;2022-12-18T16:48:59;50.20;;;26.60;;
40847;SDS011;26570;50.962;5.340;2022-12-18T16:51:31;48.77;;;24.77;;
40847;SDS011;26570;50.962;5.340;2022-12-18T16:54:19;48.30;;;24.07;;
40847;SDS011;26570;50.962;5.340;2022-12-18T16:57:06;45.70;;;25.10;;
40847;SDS011;26570;50.962;5.340;2022-12-18T17:00:03;46.53;;;24.07;;
40847;SDS011;26570;50.962;5.340;2022-12-18T17:03:13;50.20;;;27.00;;
40847;SDS011;26570;50.962;5.340;2022-12-18T17:06:04;45.70;;;25.77;;
40847;SDS011;26570;50.962;5.340;2022-12-18T17:09:14;51.67;;;26.63;;
40847;SDS011;26570;50.962;5.340;2022-12-18T17:12:24;50.57;;;28.63;;
40847;SDS011;26570;50.962;5.340;2022-12-18T17:15:14;50.57;;;27.20;;
40847;SDS011;26570;50.962;5.340;2022-12-18T17:18:04;52.67;;;28.00;;
40847;SDS011;26570;50.962;5.340;2022-12-18T17:21:00;56.77;;;28.43;;
40847;SDS011;26570;50.962;5.340;2022-12-18T17:23:49;51.20;;;27.63;;
40847;SDS011;26570;50.962;5.340;2022-12-18T17:26:52;52.97;;;26.07;;
40847;SDS011;26570;50.962;5.340;2022-12-18T17:30:01;48.73;;;26.77;;
40847;SDS011;26570;50.962;5.340;2022-12-18T17:32:51;51.87;;;26.40;;
40847;SDS011;26570;50.962;5.340;2022-12-18T17:35:44;49.23;;;24.97;;
40847;SDS011;26570;50.962;5.340;2022-12-18T17:38:32;47.10;;;24.57;;
40847;SDS011;26570;50.962;5.340;2022-12-18T17:41:48;47.93;;;24.97;;
40847;SDS011;26570;50.962;5.340;2022-12-18T17:44:47;50.50;;;26.77;;
40847;SDS011;26570;50.962;5.340;2022-12-18T17:47:36;49.47;;;27.47;;
40847;SDS011;26570;50.962;5.340;2022-12-18T17:50:24;46.80;;;25.80;;
40847;SDS011;26570;50.962;5.340;2022-12-18T17:53:18;48.23;;;26.20;;
40847;SDS011;26570;50.962;5.340;2022-12-18T17:56:09;50.80;;;25.53;;
40847;SDS011;26570;50.962;5.340;2022-12-18T17:59:01;37.20;;;19.98;;
40847;SDS011;26570;50.962;5.340;2022-12-18T18:01:52;48.67;;;24.67;;
40847;SDS011;26570;50.962;5.340;2022-12-18T18:04:44;48.23;;;24.60;;
40847;SDS011;26570;50.962;5.340;2022-12-18T18:07:33;46.07;;;25.20;;
40847;SDS011;26570;50.962;5.340;2022-12-18T18:10:47;49.63;;;25.02;;
40847;SDS011;26570;50.962;5.340;2022-12-18T18:13:43;44.93;;;24.43;;
40847;SDS011;26570;50.962;5.340;2022-12-18T18:17:13;45.23;;;24.13;;
40847;SDS011;26570;50.962;5.340;2022-12-18T18:20:02;48.67;;;24.30;;
40847;SDS011;26570;50.962;5.340;2022-12-18T18:23:28;46.83;;;24.53;;
40847;SDS011;26570;50.962;5.340;2022-12-18T18:26:16;46.80;;;25.50;;
40847;SDS011;26570;50.962;5.340;2022-12-18T18:29:17;50.10;;;26.20;;
40847;SDS011;26570;50.962;5.340;2022-12-18T18:32:33;51.40;;;25.57;;
40847;SDS011;26570;50.962;5.340;2022-12-18T18:35:45;44.17;;;22.63;;
40847;SDS011;26570;50.962;5.340;2022-12-18T18:38:34;47.10;;;23.53;;
40847;SDS011;26570;50.962;5.340;2022-12-18T18:41:29;45.90;;;23.00;;
40847;SDS011;26570;50.962;5.340;2022-12-18T18:44:41;36.93;;;19.80;;
40847;SDS011;26570;50.962;5.340;2022-12-18T18:47:34;43.37;;;21.57;;
40847;SDS011;26570;50.962;5.340;2022-12-18T18:51:07;42.63;;;22.77;;
40847;SDS011;26570;50.962;5.340;2022-12-18T18:54:23;47.63;;;24.70;;
40847;SDS011;26570;50.962;5.340;2022-12-18T18:57:09;45.57;;;23.03;;
40847;SDS011;26570;50.962;5.340;2022-12-18T19:00:03;49.38;;;24.38;;
40847;SDS011;26570;50.962;5.340;2022-12-18T19:02:53;49.73;;;25.53;;
40847;SDS011;26570;50.962;5.340;2022-12-18T19:05:40;45.30;;;24.13;;
40847;SDS011;26570;50.962;5.340;2022-12-18T19:08:29;49.57;;;24.93;;
40847;SDS011;26570;50.962;5.340;2022-12-18T19:11:24;46.80;;;25.13;;
40847;SDS011;26570;50.962;5.340;2022-12-18T19:14:52;55.53;;;26.27;;
40847;SDS011;26570;50.962;5.340;2022-12-18T19:18:10;49.23;;;25.53;;
40847;SDS011;26570;50.962;5.340;2022-12-18T19:21:19;48.83;;;23.93;;
40847;SDS011;26570;50.962;5.340;2022-12-18T19:24:29;43.57;;;22.63;;
40847;SDS011;26570;50.962;5.340;2022-12-18T19:27:20;46.43;;;21.57;;
40847;SDS011;26570;50.962;5.340;2022-12-18T19:30:07;44.57;;;22.00;;
40847;SDS011;26570;50.962;5.340;2022-12-18T19:32:54;45.37;;;22.50;;
40847;SDS011;26570;50.962;5.340;2022-12-18T19:35:40;47.80;;;21.00;;
40847;SDS011;26570;50.962;5.340;2022-12-18T19:38:27;53.63;;;23.40;;
40847;SDS011;26570;50.962;5.340;2022-12-18T19:41:17;48.43;;;22.23;;
40847;SDS011;26570;50.962;5.340;2022-12-18T19:44:07;46.43;;;23.17;;
40847;SDS011;26570;50.962;5.340;2022-12-18T19:47:20;53.27;;;22.10;;
40847;SDS011;26570;50.962;5.340;2022-12-18T19:50:29;49.30;;;22.70;;
40847;SDS011;26570;50.962;5.340;2022-12-18T19:53:16;50.10;;;23.67;;
40847;SDS011;26570;50.962;5.340;2022-12-18T19:56:04;48.73;;;23.33;;
40847;SDS011;26570;50.962;5.340;2022-12-18T19:58:57;50.72;;;23.30;;
40847;SDS011;26570;50.962;5.340;2022-12-18T20:01:44;49.30;;;23.57;;
40847;SDS011;26570;50.962;5.340;2022-12-18T20:04:32;52.63;;;23.63;;
40847;SDS011;26570;50.962;5.340;2022-12-18T20:07:19;56.83;;;24.63;;
40847;SDS011;26570;50.962;5.340;2022-12-18T20:10:07;59.90;;;25.57;;
40847;SDS011;26570;50.962;5.340;2022-12-18T20:13:01;57.30;;;25.10;;
40847;SDS011;26570;50.962;5.340;2022-12-18T20:15:53;58.07;;;25.13;;
40847;SDS011;26570;50.962;5.340;2022-12-18T20:25:04;53.83;;;24.77;;
40847;SDS011;26570;50.962;5.340;2022-12-18T20:28:01;58.53;;;26.07;;
40847;SDS011;26570;50.962;5.340;2022-12-18T20:31:33;57.30;;;24.87;;
40847;SDS011;26570;50.962;5.340;2022-12-18T20:34:35;57.47;;;25.00;;
40847;SDS011;26570;50.962;5.340;2022-12-18T20:37:25;59.73;;;26.83;;
40847;SDS011;26570;50.962;5.340;2022-12-18T20:40:13;53.93;;;25.60;;
40847;SDS011;26570;50.962;5.340;2022-12-18T20:46:27;56.97;;;25.20;;
40847;SDS011;26570;50.962;5.340;2022-12-18T20:49:24;59.33;;;26.17;;
40847;SDS011;26570;50.962;5.340;2022-12-18T20:52:25;60.00;;;25.97;;
40847;SDS011;26570;50.962;5.340;2022-12-18T20:55:17;56.93;;;26.27;;
40847;SDS011;26570;50.962;5.340;2022-12-18T20:58:09;59.30;;;27.33;;
40847;SDS011;26570;50.962;5.340;2022-12-18T21:01:09;56.72;;;26.25;;
40847;SDS011;26570;50.962;5.340;2022-12-18T21:04:10;64.37;;;28.07;;
40847;SDS011;26570;50.962;5.340;2022-12-18T21:07:59;61.97;;;26.60;;
40847;SDS011;26570;50.962;5.340;2022-12-18T21:23:33;56.50;;;24.30;;
40847;SDS011;26570;50.962;5.340;2022-12-18T21:26:59;63.33;;;26.73;;
40847;SDS011;26570;50.962;5.340;2022-12-18T21:30:39;57.63;;;26.27;;
40847;SDS011;26570;50.962;5.340;2022-12-18T21:34:02;61.27;;;26.77;;
40847;SDS011;26570;50.962;5.340;2022-12-18T21:37:00;64.10;;;26.80;;
40847;SDS011;26570;50.962;5.340;2022-12-18T21:40:19;58.07;;;25.47;;
40847;SDS011;26570;50.962;5.340;2022-12-18T21:43:27;58.43;;;25.90;;
40847;SDS011;26570;50.962;5.340;2022-12-18T21:49:44;63.40;;;27.37;;
40847;SDS011;26570;50.962;5.340;2022-12-18T21:52:42;63.63;;;27.70;;
40847;SDS011;26570;50.962;5.340;2022-12-18T22:12:40;61.13;;;26.60;;
40847;SDS011;26570;50.962;5.340;2022-12-18T22:16:22;56.17;;;25.77;;